createdAt,value
2019-03-02T00:01:34.483Z,17.17
2019-03-02T00:04:10.110Z,16.87
2019-03-02T00:06:42.614Z,17.20
2019-03-02T00:09:16.465Z,16.47
2019-03-02T00:11:49.397Z,15.50
2019-03-02T00:14:23.596Z,15.50
2019-03-02T00:16:56.491Z,16.37
2019-03-02T00:19:30.624Z,14.50
2019-03-02T00:22:06.795Z,17.65
2019-03-02T00:24:37.513Z,18.50
2019-03-02T00:27:10.533Z,19.40
2019-03-02T00:29:45.915Z,23.00
2019-03-02T00:32:16.660Z,27.70
2019-03-02T00:34:49.180Z,30.33
2019-03-02T00:37:22.591Z,33.10
2019-03-02T00:39:54.631Z,43.80
2019-03-02T00:42:31.232Z,44.70
2019-03-02T00:45:03.596Z,48.27
2019-03-02T00:47:36.756Z,46.20
2019-03-02T00:50:12.715Z,45.87
2019-03-02T00:52:46.720Z,45.07
2019-03-02T00:55:20.657Z,42.10
2019-03-02T00:57:53.664Z,38.70
2019-03-02T01:00:27.779Z,35.33
2019-03-02T01:03:00.638Z,33.27
2019-03-02T01:05:33.509Z,31.73
2019-03-02T01:08:07.727Z,31.65
2019-03-02T01:10:42.433Z,30.00
2019-03-02T01:13:16.855Z,29.10
2019-03-02T01:15:48.629Z,27.85
2019-03-02T01:18:23.220Z,30.33
2019-03-02T01:20:56.672Z,28.23
2019-03-02T01:23:28.917Z,28.33
2019-03-02T01:26:01.819Z,28.27
2019-03-02T01:28:34.817Z,29.17
2019-03-02T01:31:07.849Z,28.60
2019-03-02T01:33:41.288Z,29.60
2019-03-02T01:36:13.797Z,30.40
2019-03-02T01:38:45.087Z,30.33
2019-03-02T01:41:17.691Z,29.97
2019-03-02T01:43:49.827Z,27.83
2019-03-02T01:46:24.506Z,30.33
2019-03-02T01:48:58.694Z,28.60
2019-03-02T01:51:30.866Z,30.10
2019-03-02T01:54:04.962Z,29.60
2019-03-02T01:56:37.704Z,28.98
2019-03-02T01:59:10.873Z,29.23
2019-03-02T02:01:43.950Z,29.27
2019-03-02T02:04:18.979Z,32.50
2019-03-02T02:06:52.977Z,31.50
2019-03-02T02:09:26.548Z,30.83
2019-03-02T02:11:58.972Z,31.20
2019-03-02T02:14:30.915Z,30.40
2019-03-02T02:17:04.923Z,29.80
2019-03-02T02:19:39.651Z,32.43
2019-03-02T02:22:13.085Z,29.57
2019-03-02T02:24:46.959Z,30.70
2019-03-02T02:27:22.505Z,29.60
2019-03-02T02:29:52.932Z,30.00
2019-03-02T02:32:25.664Z,31.20
2019-03-02T02:35:00.940Z,30.80
2019-03-02T02:37:37.061Z,30.47
2019-03-02T02:40:08.056Z,30.57
2019-03-02T02:42:43.368Z,30.80
2019-03-02T02:45:16.668Z,29.80
2019-03-02T02:47:53.846Z,30.43
2019-03-02T02:50:29.353Z,30.70
2019-03-02T02:53:06.012Z,29.77
2019-03-02T02:55:36.071Z,30.63
2019-03-02T02:58:12.521Z,33.77
2019-03-02T03:00:43.616Z,27.97
2019-03-02T03:03:16.064Z,28.63
2019-03-02T03:05:54.059Z,25.23
2019-03-02T03:08:39.597Z,22.83
2019-03-02T03:11:13.861Z,20.73
2019-03-02T03:13:46.399Z,19.17
2019-03-02T03:16:20.799Z,20.73
2019-03-02T03:18:53.777Z,21.63
2019-03-02T03:21:27.758Z,19.03
2019-03-02T03:24:04.099Z,19.40
2019-03-02T03:26:37.566Z,18.90
2019-03-02T03:29:11.139Z,17.65
2019-03-02T03:31:43.505Z,16.80
2019-03-02T03:34:29.006Z,16.73
2019-03-02T03:36:49.884Z,18.93
2019-03-02T03:39:21.586Z,17.80
2019-03-02T03:41:55.511Z,19.33
2019-03-02T03:44:29.412Z,18.50
2019-03-02T03:47:02.056Z,19.57
2019-03-02T03:49:35.488Z,18.27
2019-03-02T03:52:09.121Z,19.42
2019-03-02T03:54:45.439Z,18.27
2019-03-02T03:57:21.568Z,20.23
2019-03-02T03:59:53.547Z,21.53
2019-03-02T04:02:31.379Z,18.60
2019-03-02T04:05:08.733Z,17.97
2019-03-02T04:07:38.133Z,20.30
2019-03-02T04:10:12.370Z,19.90
2019-03-02T04:12:46.559Z,19.67
2019-03-02T04:15:19.459Z,19.65
2019-03-02T04:17:52.659Z,21.53
2019-03-02T04:20:29.011Z,22.03
2019-03-02T04:23:05.194Z,20.97
2019-03-02T04:25:37.605Z,22.27
2019-03-02T04:28:10.559Z,21.40
2019-03-02T04:30:45.307Z,22.30
2019-03-02T04:33:16.604Z,20.68
2019-03-02T04:35:49.845Z,23.30
2019-03-02T04:38:23.623Z,23.63
2019-03-02T04:41:00.725Z,24.57
2019-03-02T04:43:33.594Z,22.43
2019-03-02T04:46:06.679Z,23.70
2019-03-02T04:48:39.325Z,24.77
2019-03-02T04:51:12.585Z,23.70
2019-03-02T04:53:46.738Z,24.60
2019-03-02T04:56:24.198Z,26.70
2019-03-02T04:58:58.799Z,26.07
2019-03-02T05:01:31.850Z,28.47
2019-03-02T05:04:04.783Z,25.82
2019-03-02T05:06:36.042Z,25.33
2019-03-02T05:09:08.684Z,27.00
2019-03-02T05:11:40.930Z,26.97
2019-03-02T05:14:14.279Z,29.53
2019-03-02T05:16:46.757Z,31.63
2019-03-02T05:19:19.917Z,31.33
2019-03-02T05:21:53.734Z,31.23
2019-03-02T05:24:25.974Z,32.20
2019-03-02T05:26:58.873Z,34.90
2019-03-02T05:29:32.076Z,35.17
2019-03-02T05:32:03.404Z,34.40
2019-03-02T05:34:36.686Z,35.27
2019-03-02T05:37:09.109Z,34.50
2019-03-02T05:39:40.840Z,36.10
2019-03-02T05:42:14.622Z,37.07
2019-03-02T05:44:46.943Z,38.23
2019-03-02T05:47:19.018Z,36.80
2019-03-02T05:49:54.551Z,37.73
2019-03-02T05:52:28.317Z,38.60
2019-03-02T05:55:02.043Z,38.60
2019-03-02T05:57:36.884Z,37.77
2019-03-02T06:00:11.991Z,40.07
2019-03-02T06:02:44.077Z,40.20
2019-03-02T06:05:17.080Z,38.40
2019-03-02T06:07:49.125Z,41.23
2019-03-02T06:10:25.343Z,39.80
2019-03-02T06:12:58.117Z,43.83
2019-03-02T06:15:32.050Z,42.47
2019-03-02T06:18:07.687Z,42.37
2019-03-02T06:20:38.289Z,44.90
2019-03-02T06:23:11.079Z,41.27
2019-03-02T06:25:43.371Z,44.27
2019-03-02T06:28:19.581Z,47.93
2019-03-02T06:30:53.261Z,48.23
2019-03-02T06:33:36.015Z,48.47
2019-03-02T06:36:10.068Z,44.50
2019-03-02T06:38:44.329Z,40.57
2019-03-02T06:41:17.260Z,42.67
2019-03-02T06:43:50.137Z,41.77
2019-03-02T06:46:23.546Z,39.97
2019-03-02T06:48:56.377Z,40.30
2019-03-02T06:51:28.302Z,40.97
2019-03-02T06:54:01.425Z,42.57
2019-03-02T06:56:35.944Z,42.30
2019-03-02T06:59:08.860Z,40.47
2019-03-02T07:01:41.300Z,41.00
2019-03-02T07:04:12.607Z,42.77
2019-03-02T07:06:46.927Z,42.70
2019-03-02T07:09:18.540Z,43.60
2019-03-02T07:11:50.306Z,38.90
2019-03-02T07:14:23.436Z,41.63
2019-03-02T07:16:55.880Z,44.13
2019-03-02T07:19:32.892Z,42.85
2019-03-02T07:22:04.412Z,44.60
2019-03-02T07:24:36.400Z,43.30
2019-03-02T07:27:08.576Z,44.10
2019-03-02T07:29:40.516Z,44.33
2019-03-02T07:32:14.861Z,43.17
2019-03-02T07:34:49.076Z,48.93
2019-03-02T07:37:22.433Z,44.80
2019-03-02T07:39:56.420Z,44.85
2019-03-02T07:42:33.564Z,42.90
2019-03-02T07:45:07.297Z,44.93
2019-03-02T07:47:38.561Z,44.03
2019-03-02T07:50:10.881Z,41.93
2019-03-02T07:52:44.407Z,42.55
2019-03-02T07:55:19.146Z,45.30
2019-03-02T07:57:50.619Z,47.90
2019-03-02T08:00:25.103Z,45.20
2019-03-02T08:02:56.571Z,49.33
2019-03-02T08:05:30.570Z,46.10
2019-03-02T08:08:02.645Z,45.33
2019-03-02T08:10:38.641Z,46.40
2019-03-02T08:13:11.515Z,45.10
2019-03-02T08:15:46.467Z,45.30
2019-03-02T08:18:21.736Z,42.63
2019-03-02T08:20:57.287Z,49.57
2019-03-02T08:23:28.648Z,46.33
2019-03-02T08:26:03.535Z,46.73
2019-03-02T08:28:37.647Z,47.43
2019-03-02T08:31:10.913Z,40.70
2019-03-02T08:33:46.030Z,22.37
2019-03-02T08:36:17.104Z,23.77
2019-03-02T08:38:50.134Z,22.37
2019-03-02T08:41:24.410Z,21.70
2019-03-02T08:43:56.666Z,25.37
2019-03-02T08:46:27.946Z,30.88
2019-03-02T08:49:02.984Z,39.53
2019-03-02T08:51:33.201Z,42.03
2019-03-02T08:54:06.323Z,41.93
2019-03-02T08:56:37.860Z,40.77
2019-03-02T08:59:11.869Z,41.60
2019-03-02T09:01:44.511Z,42.60
2019-03-02T09:04:16.999Z,40.70
2019-03-02T09:06:51.602Z,39.97
2019-03-02T09:09:23.393Z,41.47
2019-03-02T09:11:58.757Z,43.20
2019-03-02T09:14:31.761Z,42.37
2019-03-02T09:17:06.009Z,42.40
2019-03-02T09:19:39.191Z,41.60
2019-03-02T09:22:13.166Z,41.90
2019-03-02T09:24:45.781Z,42.93
2019-03-02T09:27:19.921Z,42.05
2019-03-02T09:29:55.847Z,41.33
2019-03-02T09:32:26.162Z,41.97
2019-03-02T09:34:59.035Z,42.00
2019-03-02T09:37:31.172Z,40.90
2019-03-02T09:40:06.132Z,39.33
2019-03-02T09:42:40.402Z,40.93
2019-03-02T09:45:15.139Z,40.67
2019-03-02T09:47:47.947Z,41.13
2019-03-02T09:50:24.632Z,38.83
2019-03-02T09:52:57.218Z,37.83
2019-03-02T09:55:30.169Z,38.87
2019-03-02T09:58:02.108Z,36.63
2019-03-02T10:00:35.981Z,37.73
2019-03-02T10:03:10.075Z,37.20
2019-03-02T10:05:46.600Z,37.90
2019-03-02T10:08:19.127Z,37.90
2019-03-02T10:10:54.645Z,37.87
2019-03-02T10:13:27.030Z,35.97
2019-03-02T10:16:00.622Z,35.17
2019-03-02T10:18:34.056Z,33.50
2019-03-02T10:21:06.457Z,35.37
2019-03-02T10:23:38.942Z,33.30
2019-03-02T10:26:11.690Z,33.05
2019-03-02T10:28:44.374Z,32.97
2019-03-02T10:31:17.260Z,32.53
2019-03-02T10:33:50.347Z,32.70
2019-03-02T10:36:25.705Z,31.63
2019-03-02T10:38:59.402Z,31.37
2019-03-02T10:41:33.382Z,30.40
2019-03-02T10:44:05.781Z,33.80
2019-03-02T10:46:39.454Z,31.13
2019-03-02T10:49:13.241Z,31.75
2019-03-02T10:51:49.331Z,31.10
2019-03-02T10:54:22.491Z,32.23
2019-03-02T10:56:56.703Z,31.17
2019-03-02T10:59:30.668Z,29.83
2019-03-02T11:02:03.483Z,28.40
2019-03-02T11:04:46.630Z,28.67
2019-03-02T11:07:36.645Z,29.63
2019-03-02T11:10:32.594Z,27.00
2019-03-02T11:13:20.810Z,25.70
2019-03-02T11:16:11.814Z,22.02
2019-03-02T11:19:11.306Z,19.33
2019-03-02T11:22:16.676Z,17.37
2019-03-02T11:25:20.459Z,16.90
2019-03-02T11:28:07.195Z,18.07
2019-03-02T11:31:05.841Z,20.13
2019-03-02T11:33:55.960Z,22.80
2019-03-02T11:36:50.712Z,23.20
2019-03-02T11:39:44.116Z,22.20
2019-03-02T11:42:23.070Z,24.60
2019-03-02T11:45:16.948Z,24.13
2019-03-02T11:48:13.692Z,23.62
2019-03-02T11:50:54.555Z,23.80
2019-03-02T11:53:38.233Z,19.60
2019-03-02T11:56:26.866Z,20.47
2019-03-02T11:59:25.453Z,19.13
2019-03-02T12:02:24.787Z,20.47
2019-03-02T12:05:15.876Z,19.00
2019-03-02T12:08:18.029Z,22.03
2019-03-02T12:11:10.452Z,21.30
2019-03-02T12:14:05.936Z,21.17
2019-03-02T12:17:04.438Z,20.45
2019-03-02T12:20:02.163Z,22.40
2019-03-02T12:22:54.745Z,21.57
2019-03-02T12:25:58.930Z,22.60
2019-03-02T12:28:59.350Z,20.57
2019-03-02T12:31:48.611Z,21.40
2019-03-02T12:34:34.610Z,20.87
2019-03-02T12:37:28.552Z,20.70
2019-03-02T12:40:11.590Z,21.13
2019-03-02T12:42:53.177Z,19.53
2019-03-02T12:45:43.650Z,20.97
2019-03-02T12:48:23.641Z,21.57
2019-03-02T12:51:03.312Z,22.30
2019-03-02T12:53:54.107Z,21.83
2019-03-02T12:56:50.246Z,23.33
2019-03-02T12:59:59.557Z,22.25
2019-03-02T13:02:51.341Z,23.40
2019-03-02T13:05:44.189Z,22.80
2019-03-02T13:08:39.752Z,23.90
2019-03-02T13:11:47.648Z,23.00
2019-03-02T13:14:39.042Z,22.77
2019-03-02T13:17:40.758Z,23.70
2019-03-02T13:20:27.159Z,22.93
2019-03-02T13:23:07.745Z,23.00
2019-03-02T13:26:01.775Z,22.63
2019-03-02T13:28:46.552Z,22.50
2019-03-02T13:31:40.043Z,22.00
2019-03-02T13:34:28.067Z,21.70
2019-03-02T13:37:20.307Z,22.13
2019-03-02T13:40:12.344Z,22.27
2019-03-02T13:43:12.096Z,23.40
2019-03-02T13:46:07.314Z,22.20
2019-03-02T13:48:58.263Z,21.37
2019-03-02T13:51:49.411Z,20.37
2019-03-02T13:54:33.862Z,21.83
2019-03-02T13:57:20.898Z,21.67
2019-03-02T14:00:07.899Z,22.03
2019-03-02T14:03:15.552Z,21.83
2019-03-02T14:06:09.162Z,20.90
2019-03-02T14:09:04.432Z,20.23
2019-03-02T14:11:59.060Z,23.60
2019-03-02T14:14:52.434Z,22.20
2019-03-02T14:17:42.982Z,22.47
2019-03-02T14:20:34.326Z,20.53
2019-03-02T14:23:26.301Z,21.70
2019-03-02T14:26:09.904Z,20.70
2019-03-02T14:29:03.250Z,21.03
2019-03-02T14:32:02.639Z,22.43
2019-03-02T14:34:58.197Z,20.97
2019-03-02T14:37:36.301Z,20.70
2019-03-02T14:40:14.701Z,23.03
2019-03-02T14:43:09.685Z,22.57
2019-03-02T14:45:47.718Z,21.40
2019-03-02T14:48:32.038Z,20.70
2019-03-02T14:51:22.839Z,21.33
2019-03-02T14:54:17.243Z,22.13
2019-03-02T14:56:59.154Z,21.20
2019-03-02T14:59:51.493Z,19.93
2019-03-02T15:02:39.254Z,20.40
2019-03-02T15:05:29.376Z,23.03
2019-03-02T15:08:16.175Z,22.77
2019-03-02T15:11:03.519Z,22.37
2019-03-02T15:14:05.618Z,21.10
2019-03-02T15:16:46.714Z,22.37
2019-03-02T15:19:39.540Z,21.80
2019-03-02T15:22:46.582Z,22.53
2019-03-02T15:25:30.656Z,22.03
2019-03-02T15:28:29.327Z,24.30
2019-03-02T15:31:16.738Z,23.77
2019-03-02T15:34:13.930Z,22.33
2019-03-02T15:36:57.267Z,22.13
2019-03-02T15:39:53.486Z,23.37
2019-03-02T15:42:45.907Z,23.30
2019-03-02T15:45:38.681Z,23.03
2019-03-02T15:48:29.111Z,25.50
2019-03-02T15:51:26.954Z,22.60
2019-03-02T15:54:07.557Z,24.03
2019-03-02T15:57:05.656Z,23.10
2019-03-02T15:59:46.557Z,25.83
2019-03-02T16:02:46.043Z,29.40
2019-03-02T16:05:29.090Z,24.13
2019-03-02T16:08:20.054Z,31.20
2019-03-02T16:11:24.077Z,25.87
2019-03-02T16:14:11.730Z,26.87
2019-03-02T16:17:03.649Z,24.90
2019-03-02T16:19:50.407Z,26.73
2019-03-02T16:22:49.604Z,27.13
2019-03-02T16:25:41.336Z,26.53
2019-03-02T16:28:29.695Z,25.53
2019-03-02T16:31:35.191Z,26.47
2019-03-02T16:34:27.421Z,26.20
2019-03-02T16:37:37.629Z,25.93
2019-03-02T16:40:38.876Z,25.53
2019-03-02T16:43:48.376Z,25.10
2019-03-02T16:46:34.992Z,26.70
2019-03-02T16:49:20.703Z,28.17
2019-03-02T16:52:11.108Z,26.33
2019-03-02T16:55:06.044Z,26.03
2019-03-02T16:57:49.615Z,28.10
2019-03-02T17:00:32.405Z,27.30
2019-03-02T17:03:25.270Z,27.53
2019-03-02T17:06:20.053Z,27.50
2019-03-02T17:09:11.795Z,31.20
2019-03-02T17:11:53.765Z,31.70
2019-03-02T17:14:45.944Z,28.97
2019-03-02T17:17:45.284Z,30.60
2019-03-02T17:20:44.697Z,30.27
2019-03-02T17:23:42.416Z,30.60
2019-03-02T17:26:26.704Z,30.37
2019-03-02T17:29:19.360Z,30.07
2019-03-02T17:32:21.213Z,29.50
2019-03-02T17:35:20.746Z,30.03
2019-03-02T17:38:08.182Z,28.43
2019-03-02T17:40:45.852Z,33.27
2019-03-02T17:43:28.422Z,30.90
2019-03-02T17:46:18.081Z,31.80
2019-03-02T17:48:59.912Z,32.73
2019-03-02T17:51:44.108Z,31.27
2019-03-02T17:54:42.548Z,34.20
2019-03-02T17:57:33.235Z,33.13
2019-03-02T18:00:44.240Z,33.40
2019-03-02T18:03:31.794Z,31.43
2019-03-02T18:06:35.415Z,33.10
2019-03-02T18:09:32.536Z,32.73
2019-03-02T18:12:29.407Z,35.27
2019-03-02T18:15:22.008Z,35.60
2019-03-02T18:18:03.827Z,38.83
2019-03-02T18:20:36.448Z,34.90
2019-03-02T18:23:11.295Z,36.90
2019-03-02T18:25:48.561Z,35.90
2019-03-02T18:28:21.614Z,33.93
2019-03-02T18:30:54.450Z,34.83
2019-03-02T18:33:39.745Z,37.27
2019-03-02T18:36:13.198Z,34.27
2019-03-02T18:38:51.321Z,35.70
2019-03-02T18:41:24.657Z,33.80
2019-03-02T18:43:59.383Z,32.47
2019-03-02T18:46:33.765Z,32.43
2019-03-02T18:49:15.127Z,34.53
2019-03-02T18:52:02.077Z,34.03
2019-03-02T18:54:36.437Z,33.57
2019-03-02T18:57:13.255Z,34.20
2019-03-02T18:59:48.195Z,36.10
2019-03-02T19:02:24.331Z,34.13
2019-03-02T19:04:58.699Z,33.77
2019-03-02T19:07:35.935Z,35.30
2019-03-02T19:10:09.024Z,33.90
2019-03-02T19:12:43.137Z,33.83
2019-03-02T19:15:18.318Z,37.50
2019-03-02T19:17:54.317Z,34.00
2019-03-02T19:20:29.608Z,34.80
2019-03-02T19:23:08.443Z,34.17
2019-03-02T19:25:44.623Z,35.87
2019-03-02T19:28:20.469Z,35.90
2019-03-02T19:30:56.847Z,37.23
2019-03-02T19:33:33.618Z,37.10
2019-03-02T19:36:07.195Z,37.20
2019-03-02T19:38:39.807Z,34.97
2019-03-02T19:41:11.891Z,36.67
2019-03-02T19:43:45.600Z,38.20
2019-03-02T19:46:19.048Z,38.40
2019-03-02T19:48:51.062Z,38.83
2019-03-02T19:51:23.003Z,36.27
2019-03-02T19:53:55.022Z,37.50
2019-03-02T19:56:28.769Z,38.00
2019-03-02T19:59:03.836Z,37.07
2019-03-02T20:01:41.756Z,38.47
2019-03-02T20:04:18.887Z,38.97
2019-03-02T20:06:53.145Z,35.90
2019-03-02T20:09:28.315Z,37.73
2019-03-02T20:12:03.971Z,38.77
2019-03-02T20:14:44.590Z,38.43
2019-03-02T20:17:18.136Z,38.23
2019-03-02T20:19:54.819Z,38.43
2019-03-02T20:22:29.269Z,37.60
2019-03-02T20:25:03.504Z,36.80
2019-03-02T20:27:36.675Z,36.60
2019-03-02T20:30:16.715Z,39.57
2019-03-02T20:32:51.577Z,39.40
2019-03-02T20:35:23.491Z,39.93
2019-03-02T20:37:58.910Z,39.27
2019-03-02T20:40:31.509Z,38.35
2019-03-02T20:43:05.518Z,39.43
2019-03-02T20:45:41.331Z,46.20
2019-03-02T20:48:19.010Z,53.10
2019-03-02T20:50:53.156Z,53.00
2019-03-02T20:53:24.822Z,38.83
2019-03-02T20:56:00.895Z,38.10
2019-03-02T20:58:33.376Z,36.40
2019-03-02T21:01:09.326Z,35.20
2019-03-02T21:03:42.334Z,35.77
2019-03-02T21:06:15.179Z,36.53
2019-03-02T21:08:48.532Z,36.37
2019-03-02T21:11:22.722Z,37.83
2019-03-02T21:13:59.595Z,39.23
2019-03-02T21:16:36.027Z,41.67
2019-03-02T21:19:09.098Z,38.33
2019-03-02T21:21:42.664Z,40.07
2019-03-02T21:24:17.676Z,38.87
2019-03-02T21:26:52.794Z,42.40
2019-03-02T21:29:24.346Z,43.07
2019-03-02T21:31:57.286Z,38.77
2019-03-02T21:34:32.332Z,38.30
2019-03-02T21:37:03.829Z,38.77
2019-03-02T21:39:35.605Z,36.47
2019-03-02T21:42:08.325Z,39.67
2019-03-02T21:44:42.411Z,38.90
2019-03-02T21:47:15.898Z,40.70
2019-03-02T21:49:48.493Z,37.77
2019-03-02T21:52:21.467Z,40.67
2019-03-02T21:54:56.480Z,40.33
2019-03-02T21:57:29.680Z,40.50
2019-03-02T22:00:03.117Z,47.80
2019-03-02T22:02:36.564Z,45.13
2019-03-02T22:05:12.829Z,41.07
2019-03-02T22:07:47.262Z,41.40
2019-03-02T22:10:30.831Z,44.60
2019-03-02T22:13:03.872Z,42.10
2019-03-02T22:15:39.179Z,45.07
2019-03-02T22:18:11.642Z,48.30
2019-03-02T22:20:48.326Z,46.47
2019-03-02T22:23:22.403Z,48.07
2019-03-02T22:25:56.054Z,45.40
2019-03-02T22:28:28.899Z,45.93
2019-03-02T22:31:01.730Z,42.80
2019-03-02T22:33:33.772Z,44.10
2019-03-02T22:36:06.097Z,41.65
2019-03-02T22:38:42.791Z,41.03
2019-03-02T22:41:17.398Z,42.87
2019-03-02T22:43:50.760Z,43.08
2019-03-02T22:46:24.498Z,41.87
2019-03-02T22:48:58.963Z,40.73
2019-03-02T22:51:30.692Z,43.60
2019-03-02T22:54:04.532Z,39.53
2019-03-02T22:56:39.936Z,39.90
2019-03-02T22:59:11.803Z,40.47
2019-03-02T23:01:59.872Z,40.87
2019-03-02T23:04:32.739Z,40.93
2019-03-02T23:07:06.948Z,40.30
2019-03-02T23:09:39.489Z,38.90
2019-03-02T23:12:11.778Z,40.80
2019-03-02T23:14:47.388Z,40.20
2019-03-02T23:17:20.041Z,40.00
2019-03-02T23:19:52.337Z,40.77
2019-03-02T23:22:26.006Z,39.83
2019-03-02T23:24:58.823Z,41.53
2019-03-02T23:27:33.518Z,43.23
2019-03-02T23:30:07.528Z,42.47
2019-03-02T23:32:41.676Z,41.77
2019-03-02T23:35:25.539Z,40.70
2019-03-02T23:38:01.277Z,42.20
2019-03-02T23:40:39.063Z,44.60
2019-03-02T23:43:12.564Z,41.15
2019-03-02T23:45:45.755Z,43.27
2019-03-02T23:48:20.041Z,42.53
2019-03-02T23:50:56.391Z,42.30
2019-03-02T23:53:28.011Z,42.35
2019-03-02T23:56:06.684Z,43.53
2019-03-02T23:58:43.864Z,43.60
